sensor_id;sensor_type;location;lat;lon;timestamp;temperature;humidity
9450;DHT22;4763;48.370;10.874;2023-07-29T00:00:52;17.00;99.90
9450;DHT22;4763;48.370;10.874;2023-07-29T00:03:20;17.00;99.90
9450;DHT22;4763;48.370;10.874;2023-07-29T00:05:48;17.00;99.90
9450;DHT22;4763;48.370;10.874;2023-07-29T00:08:14;17.00;99.90
9450;DHT22;4763;48.370;10.874;2023-07-29T00:10:41;16.90;99.90
9450;DHT22;4763;48.370;10.874;2023-07-29T00:13:08;16.90;99.90
9450;DHT22;4763;48.370;10.874;2023-07-29T00:15:37;16.90;99.90
9450;DHT22;4763;48.370;10.874;2023-07-29T00:18:05;16.90;99.90
9450;DHT22;4763;48.370;10.874;2023-07-29T00:20:32;16.80;99.90
9450;DHT22;4763;48.370;10.874;2023-07-29T00:22:59;16.80;99.90
9450;DHT22;4763;48.370;10.874;2023-07-29T00:25:27;16.80;99.90
9450;DHT22;4763;48.370;10.874;2023-07-29T00:27:55;16.80;99.90
9450;DHT22;4763;48.370;10.874;2023-07-29T00:30:22;16.70;99.90
9450;DHT22;4763;48.370;10.874;2023-07-29T00:32:50;16.70;99.90
9450;DHT22;4763;48.370;10.874;2023-07-29T00:35:17;16.70;99.90
9450;DHT22;4763;48.370;10.874;2023-07-29T00:37:44;16.70;99.90
9450;DHT22;4763;48.370;10.874;2023-07-29T00:40:15;16.60;99.90
9450;DHT22;4763;48.370;10.874;2023-07-29T00:42:42;16.70;99.90
9450;DHT22;4763;48.370;10.874;2023-07-29T00:45:09;16.60;99.90
9450;DHT22;4763;48.370;10.874;2023-07-29T00:47:36;16.60;99.90
9450;DHT22;4763;48.370;10.874;2023-07-29T00:50:05;16.60;99.90
9450;DHT22;4763;48.370;10.874;2023-07-29T00:52:32;16.50;99.90
9450;DHT22;4763;48.370;10.874;2023-07-29T00:54:59;16.50;99.90
9450;DHT22;4763;48.370;10.874;2023-07-29T00:57:26;16.50;99.90
9450;DHT22;4763;48.370;10.874;2023-07-29T00:59:54;16.50;99.90
9450;DHT22;4763;48.370;10.874;2023-07-29T01:02:21;16.40;99.90
9450;DHT22;4763;48.370;10.874;2023-07-29T01:04:52;16.40;99.90
9450;DHT22;4763;48.370;10.874;2023-07-29T01:07:23;16.40;99.90
9450;DHT22;4763;48.370;10.874;2023-07-29T01:10:00;16.30;99.90
9450;DHT22;4763;48.370;10.874;2023-07-29T01:12:35;16.30;99.90
9450;DHT22;4763;48.370;10.874;2023-07-29T01:15:10;16.30;99.90
9450;DHT22;4763;48.370;10.874;2023-07-29T01:17:42;16.20;99.90
9450;DHT22;4763;48.370;10.874;2023-07-29T01:20:13;16.20;99.90
9450;DHT22;4763;48.370;10.874;2023-07-29T01:22:41;16.20;99.90
9450;DHT22;4763;48.370;10.874;2023-07-29T01:25:10;16.20;99.90
9450;DHT22;4763;48.370;10.874;2023-07-29T01:27:36;16.10;99.90
9450;DHT22;4763;48.370;10.874;2023-07-29T01:30:04;16.10;99.90
9450;DHT22;4763;48.370;10.874;2023-07-29T01:32:36;16.10;99.90
9450;DHT22;4763;48.370;10.874;2023-07-29T01:35:10;16.10;99.90
9450;DHT22;4763;48.370;10.874;2023-07-29T01:37:39;16.00;99.90
9450;DHT22;4763;48.370;10.874;2023-07-29T01:40:10;16.00;99.90
9450;DHT22;4763;48.370;10.874;2023-07-29T01:42:37;15.90;99.90
9450;DHT22;4763;48.370;10.874;2023-07-29T01:45:05;15.90;99.90
9450;DHT22;4763;48.370;10.874;2023-07-29T01:47:32;15.90;99.90
9450;DHT22;4763;48.370;10.874;2023-07-29T01:49:59;15.90;99.90
9450;DHT22;4763;48.370;10.874;2023-07-29T01:52:25;15.90;99.90
9450;DHT22;4763;48.370;10.874;2023-07-29T01:54:52;15.90;99.90
9450;DHT22;4763;48.370;10.874;2023-07-29T01:57:20;15.80;99.90
9450;DHT22;4763;48.370;10.874;2023-07-29T01:59:47;15.80;99.90
9450;DHT22;4763;48.370;10.874;2023-07-29T02:02:14;15.80;99.90
9450;DHT22;4763;48.370;10.874;2023-07-29T02:04:41;15.90;99.90
9450;DHT22;4763;48.370;10.874;2023-07-29T02:07:07;15.90;99.90
9450;DHT22;4763;48.370;10.874;2023-07-29T02:09:34;15.80;99.90
9450;DHT22;4763;48.370;10.874;2023-07-29T02:12:01;15.90;99.90
9450;DHT22;4763;48.370;10.874;2023-07-29T02:14:29;15.80;99.90
9450;DHT22;4763;48.370;10.874;2023-07-29T02:16:56;15.90;99.90
9450;DHT22;4763;48.370;10.874;2023-07-29T02:19:23;15.90;99.90
9450;DHT22;4763;48.370;10.874;2023-07-29T02:21:49;16.00;99.90
9450;DHT22;4763;48.370;10.874;2023-07-29T02:24:16;16.00;99.90
9450;DHT22;4763;48.370;10.874;2023-07-29T02:26:43;16.00;99.90
9450;DHT22;4763;48.370;10.874;2023-07-29T02:29:09;16.00;99.90
9450;DHT22;4763;48.370;10.874;2023-07-29T02:31:37;16.00;99.90
9450;DHT22;4763;48.370;10.874;2023-07-29T02:34:04;16.00;99.90
9450;DHT22;4763;48.370;10.874;2023-07-29T02:36:31;16.00;99.90
9450;DHT22;4763;48.370;10.874;2023-07-29T02:38:58;16.00;99.90
9450;DHT22;4763;48.370;10.874;2023-07-29T02:41:25;16.00;99.90
9450;DHT22;4763;48.370;10.874;2023-07-29T02:43:52;16.10;99.90
9450;DHT22;4763;48.370;10.874;2023-07-29T02:46:19;16.00;99.90
9450;DHT22;4763;48.370;10.874;2023-07-29T02:48:47;16.00;99.90
9450;DHT22;4763;48.370;10.874;2023-07-29T02:51:14;16.00;99.90
9450;DHT22;4763;48.370;10.874;2023-07-29T02:53:40;16.00;99.90
9450;DHT22;4763;48.370;10.874;2023-07-29T02:56:07;16.00;99.90
9450;DHT22;4763;48.370;10.874;2023-07-29T02:58:34;16.00;99.90
9450;DHT22;4763;48.370;10.874;2023-07-29T03:01:01;16.00;99.90
9450;DHT22;4763;48.370;10.874;2023-07-29T03:03:28;16.00;99.90
9450;DHT22;4763;48.370;10.874;2023-07-29T03:05:59;16.00;99.90
9450;DHT22;4763;48.370;10.874;2023-07-29T03:08:26;16.00;99.90
9450;DHT22;4763;48.370;10.874;2023-07-29T03:10:53;15.90;99.90
9450;DHT22;4763;48.370;10.874;2023-07-29T03:13:20;15.90;99.90
9450;DHT22;4763;48.370;10.874;2023-07-29T03:15:47;15.90;99.90
9450;DHT22;4763;48.370;10.874;2023-07-29T03:18:14;16.00;99.90
9450;DHT22;4763;48.370;10.874;2023-07-29T03:20:41;15.90;99.90
9450;DHT22;4763;48.370;10.874;2023-07-29T03:23:09;15.90;99.90
9450;DHT22;4763;48.370;10.874;2023-07-29T03:25:35;16.00;99.90
9450;DHT22;4763;48.370;10.874;2023-07-29T03:28:02;15.90;99.90
9450;DHT22;4763;48.370;10.874;2023-07-29T03:30:29;15.90;99.90
9450;DHT22;4763;48.370;10.874;2023-07-29T03:32:56;15.80;99.90
9450;DHT22;4763;48.370;10.874;2023-07-29T03:35:22;15.80;99.90
9450;DHT22;4763;48.370;10.874;2023-07-29T03:37:49;15.80;99.90
9450;DHT22;4763;48.370;10.874;2023-07-29T03:40:17;15.80;99.90
9450;DHT22;4763;48.370;10.874;2023-07-29T03:42:44;15.80;99.90
9450;DHT22;4763;48.370;10.874;2023-07-29T03:45:11;15.80;99.90
9450;DHT22;4763;48.370;10.874;2023-07-29T03:47:38;15.70;99.90
9450;DHT22;4763;48.370;10.874;2023-07-29T03:50:06;15.70;99.90
9450;DHT22;4763;48.370;10.874;2023-07-29T03:52:33;15.70;99.90
9450;DHT22;4763;48.370;10.874;2023-07-29T03:54:59;15.70;99.90
9450;DHT22;4763;48.370;10.874;2023-07-29T03:57:27;15.70;99.90
9450;DHT22;4763;48.370;10.874;2023-07-29T03:59:55;15.70;99.90
9450;DHT22;4763;48.370;10.874;2023-07-29T04:02:22;15.70;99.90
9450;DHT22;4763;48.370;10.874;2023-07-29T04:04:49;15.60;99.90
9450;DHT22;4763;48.370;10.874;2023-07-29T04:07:15;15.60;99.90
9450;DHT22;4763;48.370;10.874;2023-07-29T04:09:42;15.60;99.90
9450;DHT22;4763;48.370;10.874;2023-07-29T04:12:09;15.60;99.90
9450;DHT22;4763;48.370;10.874;2023-07-29T04:14:38;15.60;99.90
9450;DHT22;4763;48.370;10.874;2023-07-29T04:17:05;15.60;99.90
9450;DHT22;4763;48.370;10.874;2023-07-29T04:19:31;15.60;99.90
9450;DHT22;4763;48.370;10.874;2023-07-29T04:21:58;15.60;99.90
9450;DHT22;4763;48.370;10.874;2023-07-29T04:24:25;15.60;99.90
9450;DHT22;4763;48.370;10.874;2023-07-29T04:26:52;15.70;99.90
9450;DHT22;4763;48.370;10.874;2023-07-29T04:29:19;15.80;99.90
9450;DHT22;4763;48.370;10.874;2023-07-29T04:31:47;15.80;99.90
9450;DHT22;4763;48.370;10.874;2023-07-29T04:34:14;15.80;99.90
9450;DHT22;4763;48.370;10.874;2023-07-29T04:36:41;15.80;99.90
9450;DHT22;4763;48.370;10.874;2023-07-29T04:39:07;15.90;99.90
9450;DHT22;4763;48.370;10.874;2023-07-29T04:41:34;15.90;99.90
9450;DHT22;4763;48.370;10.874;2023-07-29T04:44:01;15.90;99.90
9450;DHT22;4763;48.370;10.874;2023-07-29T04:46:28;15.90;99.90
9450;DHT22;4763;48.370;10.874;2023-07-29T04:48:58;16.00;99.90
9450;DHT22;4763;48.370;10.874;2023-07-29T04:51:24;16.00;99.90
9450;DHT22;4763;48.370;10.874;2023-07-29T04:53:51;16.00;99.90
9450;DHT22;4763;48.370;10.874;2023-07-29T04:56:18;16.10;99.90
9450;DHT22;4763;48.370;10.874;2023-07-29T04:58:45;16.10;99.90
9450;DHT22;4763;48.370;10.874;2023-07-29T05:01:12;16.20;99.90
9450;DHT22;4763;48.370;10.874;2023-07-29T05:03:38;16.20;99.90
9450;DHT22;4763;48.370;10.874;2023-07-29T05:06:07;16.20;99.90
9450;DHT22;4763;48.370;10.874;2023-07-29T05:08:34;16.30;99.90
9450;DHT22;4763;48.370;10.874;2023-07-29T05:11:01;16.40;99.90
9450;DHT22;4763;48.370;10.874;2023-07-29T05:13:28;16.50;99.90
9450;DHT22;4763;48.370;10.874;2023-07-29T05:15:55;16.60;99.90
9450;DHT22;4763;48.370;10.874;2023-07-29T05:18:22;16.70;99.90
9450;DHT22;4763;48.370;10.874;2023-07-29T05:20:48;16.70;99.90
9450;DHT22;4763;48.370;10.874;2023-07-29T05:23:17;16.90;99.90
9450;DHT22;4763;48.370;10.874;2023-07-29T05:25:43;16.90;99.90
9450;DHT22;4763;48.370;10.874;2023-07-29T05:28:11;16.90;99.90
9450;DHT22;4763;48.370;10.874;2023-07-29T05:30:37;16.90;99.90
9450;DHT22;4763;48.370;10.874;2023-07-29T05:33:05;16.90;99.90
9450;DHT22;4763;48.370;10.874;2023-07-29T05:35:33;17.00;99.90
9450;DHT22;4763;48.370;10.874;2023-07-29T05:38:00;17.10;99.90
9450;DHT22;4763;48.370;10.874;2023-07-29T05:40:30;17.20;99.90
9450;DHT22;4763;48.370;10.874;2023-07-29T05:42:57;17.30;99.90
9450;DHT22;4763;48.370;10.874;2023-07-29T05:45:24;17.40;99.90
9450;DHT22;4763;48.370;10.874;2023-07-29T05:47:50;17.50;99.90
9450;DHT22;4763;48.370;10.874;2023-07-29T05:50:17;17.50;99.90
9450;DHT22;4763;48.370;10.874;2023-07-29T05:52:47;17.60;99.90
9450;DHT22;4763;48.370;10.874;2023-07-29T05:55:14;17.70;99.90
9450;DHT22;4763;48.370;10.874;2023-07-29T05:57:42;17.70;99.90
9450;DHT22;4763;48.370;10.874;2023-07-29T06:00:09;17.90;99.90
9450;DHT22;4763;48.370;10.874;2023-07-29T06:02:36;17.90;99.90
9450;DHT22;4763;48.370;10.874;2023-07-29T06:05:03;18.10;99.90
9450;DHT22;4763;48.370;10.874;2023-07-29T06:07:30;18.10;99.90
9450;DHT22;4763;48.370;10.874;2023-07-29T06:09:59;18.10;99.90
9450;DHT22;4763;48.370;10.874;2023-07-29T06:12:26;18.00;99.90
9450;DHT22;4763;48.370;10.874;2023-07-29T06:14:54;18.00;99.90
9450;DHT22;4763;48.370;10.874;2023-07-29T06:17:21;17.90;99.90
9450;DHT22;4763;48.370;10.874;2023-07-29T06:19:48;17.90;99.90
9450;DHT22;4763;48.370;10.874;2023-07-29T06:22:14;17.80;99.90
9450;DHT22;4763;48.370;10.874;2023-07-29T06:24:41;17.90;99.90
9450;DHT22;4763;48.370;10.874;2023-07-29T06:27:08;17.80;99.90
9450;DHT22;4763;48.370;10.874;2023-07-29T06:29:34;17.80;99.90
9450;DHT22;4763;48.370;10.874;2023-07-29T06:32:03;17.80;99.90
9450;DHT22;4763;48.370;10.874;2023-07-29T06:34:30;17.80;99.90
9450;DHT22;4763;48.370;10.874;2023-07-29T06:36:57;17.70;99.90
9450;DHT22;4763;48.370;10.874;2023-07-29T06:39:24;17.50;99.90
9450;DHT22;4763;48.370;10.874;2023-07-29T06:41:51;17.50;99.90
9450;DHT22;4763;48.370;10.874;2023-07-29T06:44:18;17.50;99.90
9450;DHT22;4763;48.370;10.874;2023-07-29T06:46:44;17.50;99.90
9450;DHT22;4763;48.370;10.874;2023-07-29T06:49:13;17.50;99.90
9450;DHT22;4763;48.370;10.874;2023-07-29T06:51:39;17.50;99.90
9450;DHT22;4763;48.370;10.874;2023-07-29T06:54:06;17.60;99.90
9450;DHT22;4763;48.370;10.874;2023-07-29T06:56:33;17.60;99.90
9450;DHT22;4763;48.370;10.874;2023-07-29T06:59:00;17.60;99.90
9450;DHT22;4763;48.370;10.874;2023-07-29T07:01:26;17.70;99.90
9450;DHT22;4763;48.370;10.874;2023-07-29T07:03:53;17.70;99.90
9450;DHT22;4763;48.370;10.874;2023-07-29T07:06:23;17.90;99.90
9450;DHT22;4763;48.370;10.874;2023-07-29T07:08:50;18.10;99.90
9450;DHT22;4763;48.370;10.874;2023-07-29T07:11:17;18.10;99.90
9450;DHT22;4763;48.370;10.874;2023-07-29T07:13:44;18.10;99.90
9450;DHT22;4763;48.370;10.874;2023-07-29T07:16:11;18.30;99.90
9450;DHT22;4763;48.370;10.874;2023-07-29T07:18:38;18.50;99.90
9450;DHT22;4763;48.370;10.874;2023-07-29T07:21:05;18.90;99.90
9450;DHT22;4763;48.370;10.874;2023-07-29T07:23:33;19.20;99.90
9450;DHT22;4763;48.370;10.874;2023-07-29T07:26:00;19.50;99.90
9450;DHT22;4763;48.370;10.874;2023-07-29T07:28:26;19.60;99.90
9450;DHT22;4763;48.370;10.874;2023-07-29T07:30:53;19.50;99.90
9450;DHT22;4763;48.370;10.874;2023-07-29T07:33:21;19.60;99.90
9450;DHT22;4763;48.370;10.874;2023-07-29T07:35:48;19.60;99.90
9450;DHT22;4763;48.370;10.874;2023-07-29T07:38:14;19.40;99.90
9450;DHT22;4763;48.370;10.874;2023-07-29T07:40:46;19.50;99.90
9450;DHT22;4763;48.370;10.874;2023-07-29T07:43:18;19.60;99.90
9450;DHT22;4763;48.370;10.874;2023-07-29T07:45:45;19.60;99.90
9450;DHT22;4763;48.370;10.874;2023-07-29T07:48:12;19.60;99.90
9450;DHT22;4763;48.370;10.874;2023-07-29T07:50:39;19.60;99.90
9450;DHT22;4763;48.370;10.874;2023-07-29T07:53:06;19.70;99.90
9450;DHT22;4763;48.370;10.874;2023-07-29T07:55:33;19.80;99.90
9450;DHT22;4763;48.370;10.874;2023-07-29T07:58:01;19.90;99.90
9450;DHT22;4763;48.370;10.874;2023-07-29T08:00:28;19.90;99.90
9450;DHT22;4763;48.370;10.874;2023-07-29T08:02:55;19.90;99.90
9450;DHT22;4763;48.370;10.874;2023-07-29T08:05:22;19.90;99.90
9450;DHT22;4763;48.370;10.874;2023-07-29T08:07:48;19.90;99.90
9450;DHT22;4763;48.370;10.874;2023-07-29T08:10:15;20.00;99.90
9450;DHT22;4763;48.370;10.874;2023-07-29T08:12:42;20.10;99.90
9450;DHT22;4763;48.370;10.874;2023-07-29T08:15:10;20.30;99.90
9450;DHT22;4763;48.370;10.874;2023-07-29T08:17:37;20.30;99.90
9450;DHT22;4763;48.370;10.874;2023-07-29T08:20:04;20.40;99.90
9450;DHT22;4763;48.370;10.874;2023-07-29T08:22:32;20.40;99.90
9450;DHT22;4763;48.370;10.874;2023-07-29T08:24:58;20.50;99.90
9450;DHT22;4763;48.370;10.874;2023-07-29T08:27:25;20.50;99.90
9450;DHT22;4763;48.370;10.874;2023-07-29T08:29:53;20.50;99.90
9450;DHT22;4763;48.370;10.874;2023-07-29T08:32:21;20.50;99.90
9450;DHT22;4763;48.370;10.874;2023-07-29T08:34:48;20.80;99.90
9450;DHT22;4763;48.370;10.874;2023-07-29T08:37:15;21.20;99.90
9450;DHT22;4763;48.370;10.874;2023-07-29T08:39:41;21.50;99.90
9450;DHT22;4763;48.370;10.874;2023-07-29T08:42:11;21.40;99.90
9450;DHT22;4763;48.370;10.874;2023-07-29T08:44:41;21.80;99.90
9450;DHT22;4763;48.370;10.874;2023-07-29T08:47:08;22.20;99.90
9450;DHT22;4763;48.370;10.874;2023-07-29T08:49:36;22.50;99.90
9450;DHT22;4763;48.370;10.874;2023-07-29T08:52:04;22.60;99.90
9450;DHT22;4763;48.370;10.874;2023-07-29T08:54:31;22.90;99.90
9450;DHT22;4763;48.370;10.874;2023-07-29T08:56:58;23.00;99.90
9450;DHT22;4763;48.370;10.874;2023-07-29T08:59:26;23.20;99.90
9450;DHT22;4763;48.370;10.874;2023-07-29T09:01:55;23.50;99.90
9450;DHT22;4763;48.370;10.874;2023-07-29T09:04:23;23.50;99.90
9450;DHT22;4763;48.370;10.874;2023-07-29T09:06:53;23.40;99.90
9450;DHT22;4763;48.370;10.874;2023-07-29T09:09:22;23.30;99.90
9450;DHT22;4763;48.370;10.874;2023-07-29T09:11:49;23.50;99.90
9450;DHT22;4763;48.370;10.874;2023-07-29T09:14:15;23.90;99.90
9450;DHT22;4763;48.370;10.874;2023-07-29T09:16:43;24.10;99.90
9450;DHT22;4763;48.370;10.874;2023-07-29T09:19:10;24.20;99.90
9450;DHT22;4763;48.370;10.874;2023-07-29T09:21:39;24.30;99.90
9450;DHT22;4763;48.370;10.874;2023-07-29T09:24:08;24.70;99.90
9450;DHT22;4763;48.370;10.874;2023-07-29T09:26:35;25.00;99.90
9450;DHT22;4763;48.370;10.874;2023-07-29T09:29:02;25.00;99.90
9450;DHT22;4763;48.370;10.874;2023-07-29T09:31:29;25.30;99.90
9450;DHT22;4763;48.370;10.874;2023-07-29T09:33:57;25.30;99.90
9450;DHT22;4763;48.370;10.874;2023-07-29T09:36:25;25.00;99.90
9450;DHT22;4763;48.370;10.874;2023-07-29T09:38:55;24.60;99.90
9450;DHT22;4763;48.370;10.874;2023-07-29T09:41:27;24.30;99.90
9450;DHT22;4763;48.370;10.874;2023-07-29T09:43:56;24.10;99.90
9450;DHT22;4763;48.370;10.874;2023-07-29T09:46:25;23.80;99.90
9450;DHT22;4763;48.370;10.874;2023-07-29T09:48:53;23.40;99.90
9450;DHT22;4763;48.370;10.874;2023-07-29T09:51:21;23.30;99.90
9450;DHT22;4763;48.370;10.874;2023-07-29T09:53:50;22.80;99.90
9450;DHT22;4763;48.370;10.874;2023-07-29T09:56:17;22.70;99.90
9450;DHT22;4763;48.370;10.874;2023-07-29T09:58:45;22.60;99.90
9450;DHT22;4763;48.370;10.874;2023-07-29T10:01:12;22.40;99.90
9450;DHT22;4763;48.370;10.874;2023-07-29T10:03:42;22.10;99.90
9450;DHT22;4763;48.370;10.874;2023-07-29T10:06:10;21.80;99.90
9450;DHT22;4763;48.370;10.874;2023-07-29T10:08:37;21.50;99.90
9450;DHT22;4763;48.370;10.874;2023-07-29T10:11:08;21.20;99.90
9450;DHT22;4763;48.370;10.874;2023-07-29T10:13:36;21.00;99.90
9450;DHT22;4763;48.370;10.874;2023-07-29T10:16:05;20.80;99.90
9450;DHT22;4763;48.370;10.874;2023-07-29T10:18:33;20.70;99.90
9450;DHT22;4763;48.370;10.874;2023-07-29T10:21:00;20.50;99.90
9450;DHT22;4763;48.370;10.874;2023-07-29T10:23:34;20.20;99.90
9450;DHT22;4763;48.370;10.874;2023-07-29T10:26:03;20.00;99.90
9450;DHT22;4763;48.370;10.874;2023-07-29T10:28:31;19.90;99.90
9450;DHT22;4763;48.370;10.874;2023-07-29T10:30:58;19.90;99.90
9450;DHT22;4763;48.370;10.874;2023-07-29T10:33:26;20.00;99.90
9450;DHT22;4763;48.370;10.874;2023-07-29T10:35:54;20.10;99.90
9450;DHT22;4763;48.370;10.874;2023-07-29T10:38:22;20.10;99.90
9450;DHT22;4763;48.370;10.874;2023-07-29T10:40:51;20.10;99.90
9450;DHT22;4763;48.370;10.874;2023-07-29T10:43:24;20.10;99.90
9450;DHT22;4763;48.370;10.874;2023-07-29T10:45:51;20.10;99.90
9450;DHT22;4763;48.370;10.874;2023-07-29T10:48:40;20.20;99.90
9450;DHT22;4763;48.370;10.874;2023-07-29T10:51:26;20.30;99.90
9450;DHT22;4763;48.370;10.874;2023-07-29T10:53:55;20.40;99.90
9450;DHT22;4763;48.370;10.874;2023-07-29T10:56:27;20.70;99.90
9450;DHT22;4763;48.370;10.874;2023-07-29T10:58:55;21.20;99.90
9450;DHT22;4763;48.370;10.874;2023-07-29T11:01:30;22.00;99.90
9450;DHT22;4763;48.370;10.874;2023-07-29T11:04:27;22.30;99.90
9450;DHT22;4763;48.370;10.874;2023-07-29T11:10:03;23.10;99.90
9450;DHT22;4763;48.370;10.874;2023-07-29T11:12:39;23.50;99.90
9450;DHT22;4763;48.370;10.874;2023-07-29T11:15:16;24.10;99.90
9450;DHT22;4763;48.370;10.874;2023-07-29T11:17:44;24.60;99.90
9450;DHT22;4763;48.370;10.874;2023-07-29T11:20:13;25.00;99.90
9450;DHT22;4763;48.370;10.874;2023-07-29T11:22:41;25.20;99.90
9450;DHT22;4763;48.370;10.874;2023-07-29T11:25:09;25.60;99.90
9450;DHT22;4763;48.370;10.874;2023-07-29T11:27:36;25.40;99.90
9450;DHT22;4763;48.370;10.874;2023-07-29T11:30:04;25.00;99.90
9450;DHT22;4763;48.370;10.874;2023-07-29T11:32:32;24.60;99.90
9450;DHT22;4763;48.370;10.874;2023-07-29T11:35:04;24.30;99.90
9450;DHT22;4763;48.370;10.874;2023-07-29T11:37:32;24.00;99.90
9450;DHT22;4763;48.370;10.874;2023-07-29T11:39:59;23.70;99.90
9450;DHT22;4763;48.370;10.874;2023-07-29T11:42:27;23.70;99.90
9450;DHT22;4763;48.370;10.874;2023-07-29T11:44:56;23.70;99.90
9450;DHT22;4763;48.370;10.874;2023-07-29T11:47:23;23.70;99.90
9450;DHT22;4763;48.370;10.874;2023-07-29T11:49:49;23.70;99.90
9450;DHT22;4763;48.370;10.874;2023-07-29T11:52:16;23.70;99.90
9450;DHT22;4763;48.370;10.874;2023-07-29T11:54:47;23.60;99.90
9450;DHT22;4763;48.370;10.874;2023-07-29T11:57:14;23.40;99.90
9450;DHT22;4763;48.370;10.874;2023-07-29T11:59:42;23.30;99.90
9450;DHT22;4763;48.370;10.874;2023-07-29T12:02:12;23.30;99.90
9450;DHT22;4763;48.370;10.874;2023-07-29T12:04:40;23.90;99.90
9450;DHT22;4763;48.370;10.874;2023-07-29T12:07:08;24.50;99.90
9450;DHT22;4763;48.370;10.874;2023-07-29T12:09:35;25.00;99.90
9450;DHT22;4763;48.370;10.874;2023-07-29T12:12:05;25.30;99.90
9450;DHT22;4763;48.370;10.874;2023-07-29T12:14:32;25.70;99.90
9450;DHT22;4763;48.370;10.874;2023-07-29T12:17:00;25.90;99.90
9450;DHT22;4763;48.370;10.874;2023-07-29T12:19:31;26.20;99.90
9450;DHT22;4763;48.370;10.874;2023-07-29T12:21:59;26.20;99.90
9450;DHT22;4763;48.370;10.874;2023-07-29T12:24:26;26.40;99.90
9450;DHT22;4763;48.370;10.874;2023-07-29T12:26:53;26.20;99.90
9450;DHT22;4763;48.370;10.874;2023-07-29T12:29:23;26.60;99.90
9450;DHT22;4763;48.370;10.874;2023-07-29T12:31:57;27.00;99.90
9450;DHT22;4763;48.370;10.874;2023-07-29T12:34:25;26.90;99.90
9450;DHT22;4763;48.370;10.874;2023-07-29T12:36:53;26.70;99.90
9450;DHT22;4763;48.370;10.874;2023-07-29T12:39:22;26.70;99.90
9450;DHT22;4763;48.370;10.874;2023-07-29T12:41:50;27.10;99.90
9450;DHT22;4763;48.370;10.874;2023-07-29T12:44:17;27.20;99.90
9450;DHT22;4763;48.370;10.874;2023-07-29T12:46:46;27.20;99.90
9450;DHT22;4763;48.370;10.874;2023-07-29T12:49:13;27.50;99.90
9450;DHT22;4763;48.370;10.874;2023-07-29T12:51:39;27.50;99.90
9450;DHT22;4763;48.370;10.874;2023-07-29T12:54:06;27.40;99.90
9450;DHT22;4763;48.370;10.874;2023-07-29T12:56:33;27.60;99.90
9450;DHT22;4763;48.370;10.874;2023-07-29T12:59:00;27.60;99.90
9450;DHT22;4763;48.370;10.874;2023-07-29T13:01:28;27.50;99.90
9450;DHT22;4763;48.370;10.874;2023-07-29T13:03:56;26.80;99.90
9450;DHT22;4763;48.370;10.874;2023-07-29T13:06:23;26.70;99.90
9450;DHT22;4763;48.370;10.874;2023-07-29T13:08:50;26.40;99.90
9450;DHT22;4763;48.370;10.874;2023-07-29T13:11:17;26.30;99.90
9450;DHT22;4763;48.370;10.874;2023-07-29T13:13:43;26.70;99.90
9450;DHT22;4763;48.370;10.874;2023-07-29T13:16:11;27.10;99.90
9450;DHT22;4763;48.370;10.874;2023-07-29T13:18:37;27.10;99.90
9450;DHT22;4763;48.370;10.874;2023-07-29T13:21:05;27.40;99.90
9450;DHT22;4763;48.370;10.874;2023-07-29T13:23:32;27.20;99.90
9450;DHT22;4763;48.370;10.874;2023-07-29T13:26:00;26.50;99.90
9450;DHT22;4763;48.370;10.874;2023-07-29T13:28:27;26.20;99.90
9450;DHT22;4763;48.370;10.874;2023-07-29T13:30:54;26.40;99.90
9450;DHT22;4763;48.370;10.874;2023-07-29T13:33:26;26.60;99.90
9450;DHT22;4763;48.370;10.874;2023-07-29T13:35:53;26.80;99.90
9450;DHT22;4763;48.370;10.874;2023-07-29T13:38:22;26.80;99.90
9450;DHT22;4763;48.370;10.874;2023-07-29T13:40:48;27.10;99.90
9450;DHT22;4763;48.370;10.874;2023-07-29T13:43:16;27.10;99.90
9450;DHT22;4763;48.370;10.874;2023-07-29T13:45:43;27.10;99.90
9450;DHT22;4763;48.370;10.874;2023-07-29T13:48:10;27.10;99.90
9450;DHT22;4763;48.370;10.874;2023-07-29T13:50:36;27.30;99.90
9450;DHT22;4763;48.370;10.874;2023-07-29T13:53:03;27.20;99.90
9450;DHT22;4763;48.370;10.874;2023-07-29T13:55:31;27.00;99.90
9450;DHT22;4763;48.370;10.874;2023-07-29T13:57:58;26.90;99.90
9450;DHT22;4763;48.370;10.874;2023-07-29T14:00:25;26.90;99.90
9450;DHT22;4763;48.370;10.874;2023-07-29T14:02:52;26.80;99.90
9450;DHT22;4763;48.370;10.874;2023-07-29T14:05:18;26.70;99.90
9450;DHT22;4763;48.370;10.874;2023-07-29T14:07:46;26.60;99.90
9450;DHT22;4763;48.370;10.874;2023-07-29T14:10:13;26.80;99.90
9450;DHT22;4763;48.370;10.874;2023-07-29T14:12:41;27.10;99.90
9450;DHT22;4763;48.370;10.874;2023-07-29T14:15:08;27.30;99.90
9450;DHT22;4763;48.370;10.874;2023-07-29T14:17:35;27.40;99.90
9450;DHT22;4763;48.370;10.874;2023-07-29T14:20:02;27.70;99.90
9450;DHT22;4763;48.370;10.874;2023-07-29T14:22:30;27.80;99.90
9450;DHT22;4763;48.370;10.874;2023-07-29T14:24:57;27.90;99.90
9450;DHT22;4763;48.370;10.874;2023-07-29T14:27:23;28.00;99.90
9450;DHT22;4763;48.370;10.874;2023-07-29T14:29:54;28.10;99.90
9450;DHT22;4763;48.370;10.874;2023-07-29T14:32:20;27.90;99.90
9450;DHT22;4763;48.370;10.874;2023-07-29T14:34:47;27.60;99.90
9450;DHT22;4763;48.370;10.874;2023-07-29T14:37:14;27.40;99.90
9450;DHT22;4763;48.370;10.874;2023-07-29T14:39:41;27.30;99.90
9450;DHT22;4763;48.370;10.874;2023-07-29T14:42:07;27.30;99.90
9450;DHT22;4763;48.370;10.874;2023-07-29T14:44:34;27.20;99.90
9450;DHT22;4763;48.370;10.874;2023-07-29T14:47:02;26.90;99.90
9450;DHT22;4763;48.370;10.874;2023-07-29T14:49:29;26.80;99.90
9450;DHT22;4763;48.370;10.874;2023-07-29T14:51:56;26.80;99.90
9450;DHT22;4763;48.370;10.874;2023-07-29T14:54:22;26.80;99.90
9450;DHT22;4763;48.370;10.874;2023-07-29T14:56:49;26.60;99.90
9450;DHT22;4763;48.370;10.874;2023-07-29T14:59:16;26.50;99.90
9450;DHT22;4763;48.370;10.874;2023-07-29T15:01:42;26.30;99.90
9450;DHT22;4763;48.370;10.874;2023-07-29T15:04:10;26.10;99.90
9450;DHT22;4763;48.370;10.874;2023-07-29T15:06:37;26.00;99.90
9450;DHT22;4763;48.370;10.874;2023-07-29T15:09:04;25.90;99.90
9450;DHT22;4763;48.370;10.874;2023-07-29T15:11:31;25.50;99.90
9450;DHT22;4763;48.370;10.874;2023-07-29T15:13:58;25.30;99.90
9450;DHT22;4763;48.370;10.874;2023-07-29T15:16:25;25.10;99.90
9450;DHT22;4763;48.370;10.874;2023-07-29T15:18:52;25.10;99.90
9450;DHT22;4763;48.370;10.874;2023-07-29T15:21:20;25.00;99.90
9450;DHT22;4763;48.370;10.874;2023-07-29T15:23:47;24.80;99.90
9450;DHT22;4763;48.370;10.874;2023-07-29T15:26:14;24.50;99.90
9450;DHT22;4763;48.370;10.874;2023-07-29T15:28:41;24.20;99.90
9450;DHT22;4763;48.370;10.874;2023-07-29T15:31:07;24.10;99.90
9450;DHT22;4763;48.370;10.874;2023-07-29T15:33:36;23.90;99.90
9450;DHT22;4763;48.370;10.874;2023-07-29T15:36:03;23.70;99.90
9450;DHT22;4763;48.370;10.874;2023-07-29T15:38:31;23.60;99.90
9450;DHT22;4763;48.370;10.874;2023-07-29T15:41:00;23.60;99.90
9450;DHT22;4763;48.370;10.874;2023-07-29T15:43:27;23.60;99.90
9450;DHT22;4763;48.370;10.874;2023-07-29T15:45:55;23.50;99.90
9450;DHT22;4763;48.370;10.874;2023-07-29T15:48:24;23.40;99.90
9450;DHT22;4763;48.370;10.874;2023-07-29T15:50:50;23.40;99.90